CZ-0012 weather

Hospital Heliport
Náchod, Hradec Králové Region, Czechia

Public forecast

Using degrees Celsius for public forecast. Weather courtesy of forecast.io.

METAR (pilot weather report)

Closest report is Pardubice Airport, 29.0 nm (53.6 km) SW. Retrieved 2019/09/19 03:00 UTC (4 minutes ago):

LKPD 190300Z 29006KT CAVOK 08/04 Q1024 RMK BLU

TAF (pilot weather forecast)

Closest forecast is Pardubice Airport, 29.0 nm (53.6 km) SW. Retrieved 2019/09/19 00:06 UTC (3 hours ago):

TAF LKPD 182300Z 1900/2000 27006KT CAVOK BECMG 1906/1908 28012KT TEMPO 1907/1912 BKN035 BECMG 1916/1918 27004KT